Time;durP1;ratioP1;P1;durP2;ratioP2;P2;SDS_P1;SDS_P2;PMS_P1;PMS_P2;Temp;Humidity;BMP_temperature;BMP_pressure;BME280_temperature;BME280_humidity;BME280_pressure;Samples;Min_cycle;Max_cycle;Signal;HPM_P1;HPM_P2
2022/02/12 00:02:25;;;;;;;13.75;5.78;;;;;;;-1.14;80.77;102410.68;1770243;81;21466;-88
2022/02/12 00:04:51;;;;;;;10.58;5.12;;;;;;;-1.16;80.69;102415.69;1769856;81;21047;-87
2022/02/12 00:07:18;;;;;;;11.95;5.53;;;;;;;-1.19;80.72;102413.70;1769977;81;20991;-87
2022/02/12 00:09:44;;;;;;;12.03;5.85;;;;;;;-1.19;80.74;102424.03;1769957;79;21730;-87
2022/02/12 00:12:11;;;;;;;11.05;5.62;;;;;;;-1.19;80.71;102420.16;1769996;81;20987;-88
2022/02/12 00:14:38;;;;;;;16.95;5.95;;;;;;;-1.20;80.67;102426.10;1770025;81;20939;-87
2022/02/12 00:17:04;;;;;;;14.07;6.05;;;;;;;-1.23;80.67;102425.78;1769912;81;21023;-89
2022/02/12 00:19:33;;;;;;;15.85;6.78;;;;;;;-1.25;80.65;102429.89;1769958;81;21034;-87
2022/02/12 00:21:59;;;;;;;13.78;5.85;;;;;;;-1.27;80.62;102435.29;1769880;79;21908;-87
2022/02/12 00:24:28;;;;;;;11.70;5.30;;;;;;;-1.28;80.57;102437.33;1769710;81;21393;-87
2022/02/12 00:26:54;;;;;;;9.05;4.72;;;;;;;-1.29;80.56;102448.83;1769594;80;21072;-86
2022/02/12 00:29:21;;;;;;;12.25;6.05;;;;;;;-1.32;80.54;102445.53;1769763;81;20975;-87
2022/02/12 00:31:48;;;;;;;11.08;6.30;;;;;;;-1.35;80.49;102443.02;1769850;81;20957;-87
2022/02/12 00:34:14;;;;;;;10.48;5.70;;;;;;;-1.37;80.52;102451.55;1769862;81;21720;-87
2022/02/12 00:36:41;;;;;;;12.65;4.72;;;;;;;-1.39;80.52;102454.36;1769707;81;21014;-87
2022/02/12 00:39:09;;;;;;;12.30;4.62;;;;;;;-1.40;80.53;102453.81;1769795;81;21575;-87
2022/02/12 00:41:36;;;;;;;10.00;4.08;;;;;;;-1.41;80.54;102464.92;1769843;81;20944;-87
2022/02/12 00:44:03;;;;;;;13.55;3.98;;;;;;;-1.42;80.56;102467.34;1766102;80;21039;-87
2022/02/12 00:46:29;;;;;;;8.73;3.40;;;;;;;-1.45;80.51;102467.92;1764777;81;21825;-88
2022/02/12 00:48:57;;;;;;;13.10;4.00;;;;;;;-1.45;80.50;102469.61;1764368;81;20983;-87
2022/02/12 00:51:25;;;;;;;7.10;3.17;;;;;;;-1.46;80.46;102476.84;1764496;81;21011;-89
2022/02/12 00:53:52;;;;;;;8.70;3.75;;;;;;;-1.48;80.45;102479.62;1764371;81;21023;-88
2022/02/12 00:56:19;;;;;;;10.32;3.25;;;;;;;-1.50;80.42;102488.53;1764350;81;20944;-89
2022/02/12 00:58:45;;;;;;;9.23;3.15;;;;;;;-1.52;80.44;102491.34;1764369;80;21736;-89
2022/02/12 01:01:12;;;;;;;7.87;3.20;;;;;;;-1.51;80.44;102494.44;1764345;81;21058;-85
2022/02/12 01:03:39;;;;;;;8.00;3.10;;;;;;;-1.51;80.45;102499.98;1764417;81;20948;-89
2022/02/12 01:06:05;;;;;;;8.60;3.42;;;;;;;-1.53;80.35;102499.83;1764370;81;20979;-87
2022/02/12 01:08:32;;;;;;;8.95;4.33;;;;;;;-1.54;80.32;102504.83;1764582;80;21064;-86
2022/02/12 01:10:59;;;;;;;9.98;3.58;;;;;;;-1.57;80.36;102503.77;1764427;81;22551;-87
2022/02/12 01:13:26;;;;;;;9.65;3.50;;;;;;;-1.56;80.35;102508.54;1764517;81;20941;-88
2022/02/12 01:15:52;;;;;;;5.55;3.37;;;;;;;-1.57;80.33;102512.80;1764421;81;20987;-88
2022/02/12 01:18:19;;;;;;;8.63;3.65;;;;;;;-1.58;80.33;102516.52;1764373;81;21132;-88
2022/02/12 01:20:45;;;;;;;8.55;3.62;;;;;;;-1.59;80.26;102519.48;1764494;80;20951;-87
2022/02/12 01:23:12;;;;;;;8.88;3.58;;;;;;;-1.61;80.26;102521.00;1764395;81;21789;-86
2022/02/12 01:25:39;;;;;;;10.98;3.08;;;;;;;-1.63;80.20;102522.52;1764285;81;20928;-87
2022/02/12 01:28:05;;;;;;;7.65;3.80;;;;;;;-1.66;80.12;102524.77;1764369;81;20959;-87
2022/02/12 01:30:34;;;;;;;8.50;3.62;;;;;;;-1.67;80.12;102534.94;1764614;81;20952;-87
2022/02/12 01:33:00;;;;;;;7.67;3.37;;;;;;;-1.69;80.10;102537.73;1764393;81;20976;-87
2022/02/12 01:35:27;;;;;;;8.18;3.33;;;;;;;-1.70;80.03;102543.68;1764494;81;21726;-87
2022/02/12 01:37:54;;;;;;;8.75;4.00;;;;;;;-1.76;79.94;102539.70;1764215;81;21434;-87
2022/02/12 01:40:24;;;;;;;9.33;3.70;;;;;;;-1.79;80.01;102541.95;1764411;81;20995;-87
2022/02/12 01:42:49;;;;;;;12.03;4.25;;;;;;;-1.80;80.00;102542.73;1764254;80;20998;-88
2022/02/12 01:45:17;;;;;;;9.75;4.67;;;;;;;-1.81;80.01;102551.20;1769433;80;21398;-88
2022/02/12 01:47:47;;;;;;;9.45;4.00;;;;;;;-1.84;79.91;102559.95;1769591;81;21813;-87
2022/02/12 01:50:15;;;;;;;9.75;4.35;;;;;;;-1.85;79.94;102558.49;1769417;81;20999;-87
2022/02/12 01:52:43;;;;;;;11.03;3.65;;;;;;;-1.88;79.94;102559.06;1769432;80;20990;-88
2022/02/12 01:55:09;;;;;;;9.95;4.25;;;;;;;-1.90;79.97;102557.09;1769430;81;20963;-87
2022/02/12 01:57:36;;;;;;;9.18;4.12;;;;;;;-1.90;79.96;102559.67;1769570;81;20979;-87
2022/02/12 02:00:08;;;;;;;9.30;4.00;;;;;;;-1.94;79.85;102559.73;1769485;81;22583;-86
2022/02/12 02:02:37;;;;;;;12.30;4.30;;;;;;;-1.97;79.84;102571.05;1769402;81;20967;-86
2022/02/12 02:05:10;;;;;;;11.43;4.22;;;;;;;-2.00;79.85;102566.45;1769273;81;21080;-86
2022/02/12 02:07:38;;;;;;;;;;;;;;;-2.03;79.83;102568.70;1770954;80;21441;-86
2022/02/12 02:10:05;;;;;;;9.20;3.87;;;;;;;-2.03;79.94;102572.95;1769508;80;20165;-88
2022/02/12 02:12:32;;;;;;;13.85;3.85;;;;;;;-2.05;79.91;102580.92;1769549;81;21724;-86
2022/02/12 02:15:01;;;;;;;12.60;3.98;;;;;;;-2.08;79.92;102580.59;1769412;81;21090;-87
2022/02/12 02:17:28;;;;;;;7.30;3.75;;;;;;;-2.09;79.94;102584.84;1769454;81;20964;-85
2022/02/12 02:19:54;;;;;;;11.00;4.20;;;;;;;-2.11;79.90;102586.73;1769317;81;21027;-86
2022/02/12 02:22:27;;;;;;;11.95;4.30;;;;;;;-2.11;79.91;102586.73;1769564;81;20994;-85
2022/02/12 02:24:54;;;;;;;10.72;4.20;;;;;;;-2.12;79.92;102582.31;1750459;81;27665;-85
2022/02/12 02:27:21;;;;;;;11.95;3.92;;;;;;;-2.13;79.93;102585.66;1769525;81;21043;-86
2022/02/12 02:29:48;;;;;;;25.40;8.58;;;;;;;-2.15;79.96;102594.14;1769611;81;20955;-87
2022/02/12 02:32:17;;;;;;;13.98;4.90;;;;;;;-2.14;79.94;102602.78;1769636;81;20971;-86
2022/02/12 02:34:54;;;;;;;10.80;3.92;;;;;;;-2.15;79.95;102608.33;1769638;81;21015;-86
2022/02/12 02:37:22;;;;;;;9.25;3.67;;;;;;;-2.17;79.87;102612.80;1769574;81;22387;-87
2022/02/12 02:39:51;;;;;;;11.40;3.77;;;;;;;-2.20;79.87;102613.37;1749271;81;21014;-87
2022/02/12 02:42:17;;;;;;;10.20;3.37;;;;;;;-2.22;79.91;102608.42;1769660;81;21422;-85
2022/02/12 02:44:44;;;;;;;9.80;3.42;;;;;;;-2.22;79.88;102607.14;1769491;80;21445;-83
2022/02/12 02:49:56;;;;;;;7.42;3.25;;;;;;;-2.25;79.91;102613.63;1769938;81;22550;-87
2022/02/12 02:57:53;;;;;;;6.72;2.75;;;;;;;-2.23;79.99;102618.61;1769581;79;20991;-86
2022/02/12 03:00:19;;;;;;;4.92;2.35;;;;;;;-2.22;80.00;102623.91;1769713;81;21011;-86
2022/02/12 03:02:46;;;;;;;7.20;2.85;;;;;;;-2.21;80.05;102624.84;1769712;81;22277;-86
2022/02/12 03:05:13;;;;;;;5.78;2.30;;;;;;;-2.19;80.04;102620.37;1769592;81;21022;-87
2022/02/12 03:07:40;;;;;;;6.85;2.37;;;;;;;-2.16;80.08;102615.91;1769539;81;20998;-86
2022/02/12 03:10:08;;;;;;;4.37;2.33;;;;;;;-2.13;80.02;102623.08;1769634;81;20955;-86
2022/02/12 03:12:35;;;;;;;7.85;2.95;;;;;;;-2.12;80.02;102628.41;1769641;81;21069;-85
2022/02/12 03:15:03;;;;;;;7.62;2.20;;;;;;;-2.11;79.94;102620.28;1769606;79;22450;-86
2022/02/12 03:17:30;;;;;;;8.35;2.72;;;;;;;-2.09;79.94;102622.25;1769450;81;20991;-86
2022/02/12 03:19:56;;;;;;;7.45;2.70;;;;;;;-2.07;79.95;102628.88;1769626;81;20971;-86
2022/02/12 03:22:23;;;;;;;8.78;2.92;;;;;;;-2.07;79.90;102637.91;1769570;81;20991;-87
2022/02/12 03:24:50;;;;;;;6.20;2.70;;;;;;;-2.05;79.90;102636.40;1769695;81;20991;-87
2022/02/12 03:27:16;;;;;;;8.53;3.05;;;;;;;-2.03;79.90;102640.95;1769666;81;21726;-87
2022/02/12 03:29:43;;;;;;;9.20;2.95;;;;;;;-2.03;79.81;102646.50;1769655;81;20983;-88
2022/02/12 03:32:10;;;;;;;7.58;2.90;;;;;;;-2.04;79.75;102649.47;1769733;81;20974;-86
2022/02/12 03:34:37;;;;;;;7.45;3.05;;;;;;;-2.06;79.71;102654.84;1769663;79;21425;-83
2022/02/12 03:37:04;;;;;;;6.05;2.70;;;;;;;-2.05;79.73;102654.45;1769574;81;21071;-85
2022/02/12 03:39:30;;;;;;;9.85;2.65;;;;;;;-2.05;79.75;102657.95;1769715;81;21793;-86
2022/02/12 03:41:57;;;;;;;7.25;2.47;;;;;;;-2.04;79.74;102658.89;1769530;81;20944;-85
2022/02/12 03:44:25;;;;;;;8.33;2.55;;;;;;;-2.05;79.66;102654.45;1748197;80;20975;-85
2022/02/12 03:46:52;;;;;;;5.92;2.77;;;;;;;-2.06;79.65;102657.42;1773231;80;20971;-88
2022/02/12 03:49:19;;;;;;;7.92;2.98;;;;;;;-2.04;79.64;102664.05;1764631;81;21425;-87
2022/02/12 03:51:46;;;;;;;6.40;2.70;;;;;;;-2.04;79.64;102662.75;1764618;81;21760;-88
2022/02/12 03:54:13;;;;;;;6.08;2.22;;;;;;;-2.05;79.60;102657.04;1764293;81;20980;-88
2022/02/12 03:56:39;;;;;;;8.58;2.72;;;;;;;-2.05;79.59;102660.53;1764552;81;20956;-86
2022/02/12 03:59:06;;;;;;;4.45;2.20;;;;;;;-2.05;79.53;102660.91;1764635;81;20996;-86
2022/02/12 04:01:33;;;;;;;7.33;2.67;;;;;;;-2.05;79.55;102662.20;1764712;81;21430;-86
2022/02/12 04:03:59;;;;;;;9.20;2.42;;;;;;;-2.05;79.52;102665.69;1764551;81;22570;-87
2022/02/12 04:06:26;;;;;;;5.15;2.05;;;;;;;-2.05;79.55;102665.69;1764504;80;20983;-87
2022/02/12 04:08:52;;;;;;;4.22;2.00;;;;;;;-2.04;79.53;102656.30;1764618;81;20980;-87
2022/02/12 04:11:21;;;;;;;7.58;2.30;;;;;;;-2.05;79.49;102660.53;1764619;81;20992;-87
2022/02/12 04:13:47;;;;;;;5.00;2.05;;;;;;;-2.04;79.49;102661.08;1764633;81;21449;-86
2022/02/12 04:16:15;;;;;;;7.33;2.62;;;;;;;-2.05;79.43;102659.62;1764579;81;21730;-85
2022/02/12 04:18:43;;;;;;;8.10;3.92;;;;;;;-2.06;79.39;102666.84;1764324;81;21023;-84
2022/02/12 04:21:12;;;;;;;9.18;4.35;;;;;;;-2.09;79.32;102667.41;1764190;81;21445;-84
2022/02/12 04:23:39;;;;;;;15.60;7.17;;;;;;;-2.10;79.30;102669.82;1764399;81;20944;-84
2022/02/12 04:26:08;;;;;;;17.77;6.65;;;;;;;-2.12;79.34;102677.42;1764431;81;20988;-84
2022/02/12 04:28:36;;;;;;;17.32;7.58;;;;;;;-2.14;79.33;102680.19;1764292;81;21740;-84
2022/02/12 04:31:06;;;;;;;17.25;9.20;;;;;;;-2.16;79.29;102684.27;1728326;81;20981;-84
2022/02/12 04:33:32;;;;;;;30.20;15.00;;;;;;;-2.18;79.37;102682.84;1727328;81;20962;-84
2022/02/12 04:35:59;;;;;;;17.65;8.28;;;;;;;-2.21;79.30;102680.31;1727412;82;21438;-86
2022/02/12 04:38:26;;;;;;;15.13;6.83;;;;;;;-2.25;79.25;102684.22;1727207;83;21023;-85
2022/02/12 04:40:52;;;;;;;18.45;8.55;;;;;;;-2.28;79.33;102678.72;1727392;83;21733;-88
2022/02/12 04:43:19;;;;;;;16.10;7.75;;;;;;;-2.31;79.38;102682.25;1727449;81;20971;-87
2022/02/12 04:45:45;;;;;;;18.98;6.83;;;;;;;-2.31;79.50;102687.79;1735818;81;20964;-87
2022/02/12 04:48:12;;;;;;;14.98;5.90;;;;;;;-2.35;79.56;102684.91;1743371;80;20965;-87
2022/02/12 04:50:39;;;;;;;39.33;18.17;;;;;;;-2.36;79.60;102686.02;1775326;80;21457;-86
2022/02/12 04:53:06;;;;;;;55.17;21.05;;;;;;;-2.36;79.56;102684.73;1749260;80;22623;-88
2022/02/12 04:55:36;;;;;;;95.32;41.58;;;;;;;-2.37;79.59;102688.05;1770703;80;20967;-88
2022/02/12 04:58:05;;;;;;;66.87;30.15;;;;;;;-2.37;79.76;102691.53;1769518;81;21472;-88
2022/02/12 05:00:32;;;;;;;71.28;30.30;;;;;;;-2.39;79.64;102690.45;1769596;81;21454;-88
2022/02/12 05:02:58;;;;;;;43.42;21.23;;;;;;;-2.41;79.68;102691.95;1769660;80;21488;-88
2022/02/12 05:05:25;;;;;;;95.17;38.85;;;;;;;-2.42;79.69;102689.20;1769515;81;22584;-88
2022/02/12 05:07:52;;;;;;;108.95;44.25;;;;;;;-2.45;79.70;102693.66;1769094;81;21458;-84
2022/02/12 05:10:19;;;;;;;120.28;45.83;;;;;;;-2.45;79.78;102691.09;1769736;81;20940;-88
2022/02/12 05:12:45;;;;;;;70.78;29.60;;;;;;;-2.44;79.85;102694.57;1769638;81;20983;-88
2022/02/12 05:15:13;;;;;;;49.85;23.12;;;;;;;-2.43;79.87;102704.16;1769203;80;21042;-88
2022/02/12 05:17:39;;;;;;;33.65;18.40;;;;;;;-2.45;79.89;102700.11;1769439;81;21738;-86
2022/02/12 05:20:09;;;;;;;29.25;15.60;;;;;;;-2.45;79.87;102701.78;1769428;80;21623;-87
2022/02/12 05:22:35;;;;;;;22.58;13.20;;;;;;;-2.47;79.94;102704.19;1769659;80;21008;-90
2022/02/12 05:25:05;;;;;;;13.08;8.13;;;;;;;-2.45;79.99;102705.27;1750125;81;20984;-88
2022/02/12 05:27:32;;;;;;;17.52;11.63;;;;;;;-2.48;79.95;102706.22;1769602;81;21014;-87
2022/02/12 05:29:59;;;;;;;21.57;15.98;;;;;;;-2.47;80.07;102716.18;1769526;80;21726;-89
2022/02/12 05:32:26;;;;;;;18.40;12.20;;;;;;;-2.48;80.12;102718.20;1769329;81;21469;-87
2022/02/12 05:34:56;;;;;;;15.90;6.72;;;;;;;-2.47;80.14;102718.76;1768762;81;20951;-88
2022/02/12 05:37:24;;;;;;;14.68;10.28;;;;;;;-2.49;80.19;102711.23;1769287;81;21473;-89
2022/02/12 05:39:51;;;;;;;13.98;8.30;;;;;;;-2.49;80.15;102717.30;1769759;80;21552;-88
2022/02/12 05:42:18;;;;;;;12.68;7.03;;;;;;;-2.49;80.14;102716.39;1747011;81;22789;-88
2022/02/12 05:44:44;;;;;;;11.85;6.35;;;;;;;-2.51;80.12;102725.63;1747484;82;20947;-88
2022/02/12 05:47:11;;;;;;;12.45;7.95;;;;;;;-2.52;80.17;102719.53;1748487;81;21451;-90
2022/02/12 05:49:38;;;;;;;17.15;9.65;;;;;;;-2.52;80.17;102714.75;1724407;83;20979;-90
2022/02/12 05:52:07;;;;;;;13.15;8.38;;;;;;;-2.55;80.13;102715.35;1745420;82;20986;-86
2022/02/12 05:54:33;;;;;;;13.62;7.55;;;;;;;-2.58;80.08;102722.73;1724490;83;21310;-88
2022/02/12 05:57:00;;;;;;;13.10;6.72;;;;;;;-2.60;80.10;102722.95;1745463;81;21018;-88
2022/02/12 05:59:27;;;;;;;11.45;5.62;;;;;;;-2.61;80.18;102724.62;1724565;83;21402;-88
2022/02/12 06:01:55;;;;;;;6.70;4.45;;;;;;;-2.64;80.16;102724.27;1752319;79;20992;-86
2022/02/12 06:04:23;;;;;;;10.28;4.72;;;;;;;-2.64;80.20;102727.23;1764522;80;20997;-91
2022/02/12 06:06:50;;;;;;;11.40;5.37;;;;;;;-2.66;80.23;102728.34;1723189;80;21703;-86
2022/02/12 06:09:17;;;;;;;9.83;4.95;;;;;;;-2.65;80.32;102732.73;1769419;81;21497;-85
2022/02/12 06:11:43;;;;;;;12.35;6.35;;;;;;;-2.64;80.38;102738.45;1769768;81;20951;-86
2022/02/12 06:14:10;;;;;;;16.73;7.92;;;;;;;-2.63;80.38;102732.91;1769663;81;21504;-86
2022/02/12 06:16:39;;;;;;;24.30;11.97;;;;;;;-2.61;80.46;102740.44;1750187;81;21505;-87
2022/02/12 06:19:05;;;;;;;14.63;7.00;;;;;;;-2.62;80.47;102739.53;1749685;81;21751;-86
2022/02/12 06:21:32;;;;;;;22.80;10.28;;;;;;;-2.61;80.52;102738.80;1769486;81;20978;-86
2022/02/12 06:23:59;;;;;;;24.63;11.48;;;;;;;-2.60;80.54;102739.32;1769290;81;21487;-86
2022/02/12 06:26:25;;;;;;;26.10;13.25;;;;;;;-2.60;80.54;102735.45;1748494;81;20985;-86
2022/02/12 06:28:52;;;;;;;38.42;19.87;;;;;;;-2.59;80.52;102733.78;1769420;80;21013;-86
2022/02/12 06:31:19;;;;;;;33.20;15.98;;;;;;;-2.58;80.56;102736.92;1769696;81;21756;-86
2022/02/12 06:33:46;;;;;;;55.10;26.65;;;;;;;-2.56;80.67;102741.48;1769479;81;20992;-87
2022/02/12 06:36:13;;;;;;;40.15;20.25;;;;;;;-2.52;80.73;102745.31;1754264;79;21517;-86
2022/02/12 06:38:41;;;;;;;42.90;21.48;;;;;;;-2.50;80.79;102745.10;1738987;82;20967;-86
2022/02/12 06:41:08;;;;;;;65.10;30.97;;;;;;;-2.45;80.89;102752.98;1742217;79;20995;-86
2022/02/12 06:43:35;;;;;;;51.35;23.15;;;;;;;-2.38;81.01;102759.35;1739174;82;21740;-86
2022/02/12 06:46:01;;;;;;;64.15;30.32;;;;;;;-2.32;81.10;102756.53;1732914;82;21469;-86
2022/02/12 06:48:28;;;;;;;94.97;40.03;;;;;;;-2.24;81.18;102759.94;1731545;82;20979;-87
2022/02/12 06:50:55;;;;;;;76.90;33.05;;;;;;;-2.16;81.24;102760.38;1731522;82;21449;-86
2022/02/12 06:53:22;;;;;;;80.75;31.77;;;;;;;-2.06;81.49;102760.64;1731398;82;21070;-87
2022/02/12 06:55:50;;;;;;;107.47;46.58;;;;;;;-1.94;81.60;102761.03;1735701;81;22538;-87
2022/02/12 06:58:18;;;;;;;104.00;43.15;;;;;;;-1.81;81.63;102773.59;1760379;81;21419;-86
2022/02/12 07:00:48;;;;;;;84.03;35.03;;;;;;;-1.72;81.49;102769.42;1761823;80;21030;-87
2022/02/12 07:03:14;;;;;;;91.80;37.20;;;;;;;-1.64;81.41;102768.56;1761699;81;21886;-87
2022/02/12 07:05:43;;;;;;;104.45;41.68;;;;;;;-1.55;81.34;102769.92;1761933;81;21015;-86
2022/02/12 07:08:10;;;;;;;110.60;39.00;;;;;;;-1.48;81.26;102768.53;1740991;81;22562;-87
2022/02/12 07:10:38;;;;;;;197.20;67.65;;;;;;;-1.38;81.24;102767.44;1767925;81;20936;-92
2022/02/12 07:13:05;;;;;;;194.85;60.35;;;;;;;-1.30;81.16;102764.37;1761941;81;20979;-86
2022/02/12 07:15:32;;;;;;;130.05;48.25;;;;;;;-1.23;81.12;102769.81;1761662;81;21039;-85
2022/02/12 07:17:59;;;;;;;27.85;13.72;;;;;;;-1.15;81.10;102768.94;1761898;81;21461;-86
2022/02/12 07:20:25;;;;;;;17.98;7.20;;;;;;;-1.07;81.08;102776.19;1761762;81;21736;-86
2022/02/12 07:22:52;;;;;;;11.90;4.33;;;;;;;-1.02;81.00;102785.35;1761759;81;21450;-86
2022/02/12 07:25:19;;;;;;;8.88;3.90;;;;;;;-0.95;80.97;102783.05;1761669;81;21503;-86
2022/02/12 07:27:45;;;;;;;8.48;3.50;;;;;;;-0.89;80.90;102790.13;1761675;81;20975;-86
2022/02/12 07:30:14;;;;;;;9.98;3.58;;;;;;;-0.83;80.91;102796.83;1761663;81;21027;-86
2022/02/12 07:32:41;;;;;;;6.80;3.30;;;;;;;-0.75;80.88;102802.83;1738308;81;21770;-85
2022/02/12 07:35:10;;;;;;;7.92;3.20;;;;;;;-0.68;80.83;102800.09;1717886;82;21054;-85
2022/02/12 07:37:41;;;;;;;20.35;3.75;;;;;;;-0.61;80.78;102801.66;1718006;83;21027;-87
2022/02/12 07:40:09;;;;;;;14.55;3.95;;;;;;;-0.53;80.76;102802.05;1700827;83;21022;-86
2022/02/12 07:42:35;;;;;;;10.68;3.17;;;;;;;-0.46;80.74;102801.92;1721049;82;21015;-85
2022/02/12 07:45:02;;;;;;;11.55;3.40;;;;;;;-0.38;80.70;102805.68;1725564;82;21731;-85
2022/02/12 07:47:29;;;;;;;6.92;2.92;;;;;;;-0.32;80.66;102813.70;1733143;82;20985;-86
2022/02/12 07:49:56;;;;;;;12.85;3.25;;;;;;;-0.24;80.65;102811.89;1731593;82;20993;-86
2022/02/12 07:52:22;;;;;;;8.25;2.90;;;;;;;-0.16;80.62;102823.92;1728380;83;21012;-86
2022/02/12 07:54:49;;;;;;;10.68;3.17;;;;;;;-0.08;80.56;102819.52;1761450;80;21011;-85
2022/02/12 07:57:16;;;;;;;11.80;3.30;;;;;;;-0.03;80.52;102816.63;1761883;80;21735;-86
2022/02/12 07:59:42;;;;;;;9.38;3.30;;;;;;;0.06;80.49;102819.64;1761891;81;20956;-86
2022/02/12 08:02:09;;;;;;;10.93;3.30;;;;;;;0.12;80.44;102817.27;1761921;81;20975;-88
2022/02/12 08:04:36;;;;;;;11.25;3.25;;;;;;;0.22;80.58;102824.66;1761896;80;21019;-86
2022/02/12 08:09:48;;;;;;;9.95;3.33;;;;;;;0.40;80.39;102823.91;1761880;81;21732;-87
2022/02/12 08:12:14;;;;;;;10.70;3.80;;;;;;;0.47;80.29;102826.34;1754832;79;21410;-87
2022/02/12 08:14:51;;;;;;;13.53;3.72;;;;;;;0.54;80.24;102822.28;1744258;81;21011;-87
2022/02/12 08:17:19;;;;;;;12.47;3.55;;;;;;;0.63;80.17;102823.97;1769931;80;21000;-86
2022/02/12 08:19:46;;;;;;;12.05;3.67;;;;;;;0.70;80.08;102818.62;1769869;81;20966;-84
2022/02/12 08:22:13;;;;;;;12.98;2.90;;;;;;;0.77;80.00;102817.17;1769729;81;21803;-84
2022/02/12 08:24:40;;;;;;;10.05;3.30;;;;;;;0.83;79.93;102820.35;1769706;79;20991;-85
2022/02/12 08:27:09;;;;;;;12.15;3.65;;;;;;;0.89;79.80;102817.05;1769980;81;21453;-87
2022/02/12 08:29:39;;;;;;;6.55;2.50;;;;;;;0.94;79.74;102826.20;1769850;80;21107;-88
2022/02/12 08:32:06;;;;;;;10.18;3.33;;;;;;;0.99;79.63;102823.13;1759329;79;21476;-88
2022/02/12 08:34:33;;;;;;;11.28;3.10;;;;;;;1.04;79.65;102828.00;1747742;81;22607;-88
2022/02/12 08:37:00;;;;;;;10.68;3.45;;;;;;;1.10;79.48;102827.67;1752672;81;20994;-88
2022/02/12 08:39:26;;;;;;;15.35;3.58;;;;;;;1.12;79.44;102828.34;1752614;81;21473;-88
2022/02/12 08:41:53;;;;;;;13.75;3.50;;;;;;;1.16;79.39;102825.66;1752669;81;20994;-88
2022/02/12 08:44:20;;;;;;;11.53;3.35;;;;;;;1.23;79.41;102837.16;1752635;81;21456;-89
2022/02/12 08:46:47;;;;;;;16.87;3.90;;;;;;;1.29;79.37;102830.35;1752500;81;21721;-89
2022/02/12 08:49:19;;;;;;;8.28;3.75;;;;;;;1.34;79.29;102832.63;1752607;81;20998;-88
2022/02/12 08:51:45;;;;;;;14.07;3.77;;;;;;;1.40;79.14;102833.59;1752578;81;21050;-88
2022/02/12 08:54:14;;;;;;;11.70;3.70;;;;;;;1.44;79.03;102835.70;1752587;81;20994;-88
2022/02/12 08:56:43;;;;;;;13.22;3.90;;;;;;;1.48;78.98;102833.95;1752867;81;21045;-89
2022/02/12 08:59:10;;;;;;;33.58;14.53;;;;;;;1.53;78.90;102827.50;1732079;81;21273;-88
2022/02/12 09:01:40;;;;;;;44.05;17.35;;;;;;;1.56;78.86;102825.59;1752580;81;20978;-88
2022/02/12 09:04:10;;;;;;;51.65;20.82;;;;;;;1.62;78.87;102823.57;1752684;81;20983;-88
2022/02/12 09:06:37;;;;;;;32.03;12.28;;;;;;;1.66;78.79;102829.58;1752182;81;21418;-88
2022/02/12 09:09:08;;;;;;;20.32;8.80;;;;;;;1.71;78.75;102826.13;1752521;81;20991;-88
2022/02/12 09:11:33;;;;;;;29.70;12.88;;;;;;;1.77;78.62;102825.80;1716293;83;21743;-88
2022/02/12 09:13:59;;;;;;;16.30;5.90;;;;;;;1.81;78.59;102828.81;1727068;83;20998;-88
2022/02/12 09:16:26;;;;;;;16.40;6.25;;;;;;;1.86;78.55;102822.73;1727280;83;21444;-88
2022/02/12 09:18:53;;;;;;;22.75;9.33;;;;;;;1.91;78.49;102828.88;1727162;83;21027;-88
2022/02/12 09:21:21;;;;;;;20.37;7.92;;;;;;;1.94;78.36;102825.67;1727273;83;21463;-88
2022/02/12 09:23:48;;;;;;;21.15;7.45;;;;;;;1.99;78.27;102828.69;1727131;83;21812;-88
2022/02/12 09:26:15;;;;;;;46.50;16.97;;;;;;;2.02;78.26;102833.78;1727422;83;21061;-88
2022/02/12 09:28:42;;;;;;;39.48;15.05;;;;;;;2.07;78.28;102826.05;1727202;83;21027;-88
2022/02/12 09:31:09;;;;;;;46.83;18.30;;;;;;;2.12;78.19;102819.59;1727060;83;21117;-88
2022/02/12 09:33:35;;;;;;;41.95;16.55;;;;;;;2.19;78.08;102827.95;1727306;83;21032;-88
2022/02/12 09:36:02;;;;;;;65.35;23.22;;;;;;;2.22;77.98;102821.75;1727316;83;21775;-87
2022/02/12 09:38:29;;;;;;;27.32;10.93;;;;;;;2.27;77.89;102825.66;1727099;83;21022;-87
2022/02/12 09:40:56;;;;;;;82.27;29.40;;;;;;;2.28;77.63;102821.91;1727066;83;20967;-88
2022/02/12 09:43:27;;;;;;;67.17;26.23;;;;;;;2.34;77.71;102831.95;1727123;83;20999;-88
2022/02/12 09:46:30;;;;;;;54.95;21.62;;;;;;;2.39;77.63;102825.48;1723223;83;21003;-87
2022/02/12 09:48:58;;;;;;;45.17;16.62;;;;;;;2.45;77.40;102832.94;1716526;83;21801;-88
2022/02/12 09:51:26;;;;;;;168.75;63.35;;;;;;;2.50;77.30;102836.48;1716422;83;21894;-87
2022/02/12 09:53:52;;;;;;;78.28;29.65;;;;;;;2.52;77.03;102842.73;1716490;82;21018;-87
2022/02/12 09:56:19;;;;;;;56.90;22.20;;;;;;;2.53;76.99;102838.43;1716558;83;21011;-88
2022/02/12 09:58:46;;;;;;;128.97;44.10;;;;;;;2.57;76.91;102843.53;1716447;82;21477;-87
2022/02/12 10:01:12;;;;;;;69.12;25.43;;;;;;;2.57;76.71;102841.83;1716533;83;21661;-88
2022/02/12 10:03:41;;;;;;;126.02;48.92;;;;;;;2.56;76.48;102847.83;1716440;82;21105;-87
2022/02/12 10:06:10;;;;;;;162.05;72.90;;;;;;;2.57;76.38;102846.13;1716474;82;20982;-87
2022/02/12 10:08:37;;;;;;;31.17;13.85;;;;;;;2.59;76.25;102852.02;1716319;83;21497;-88
2022/02/12 10:11:16;;;;;;;18.05;9.95;;;;;;;2.61;76.12;102840.42;1716501;82;20964;-88
2022/02/12 10:13:45;;;;;;;15.60;7.30;;;;;;;2.62;75.97;102842.27;1716574;82;21793;-88
2022/02/12 10:16:14;;;;;;;13.45;5.72;;;;;;;2.66;76.08;102849.56;1716231;82;21553;-88
2022/02/12 10:18:40;;;;;;;21.42;10.18;;;;;;;2.70;75.80;102856.86;1716641;82;20999;-88
2022/02/12 10:21:08;;;;;;;19.80;13.08;;;;;;;2.71;75.50;102856.11;1688458;83;21016;-88
2022/02/12 10:23:41;;;;;;;26.10;16.17;;;;;;;2.72;75.29;102854.95;1716493;82;20989;-88
2022/02/12 10:26:12;;;;;;;11.57;4.40;;;;;;;2.73;75.31;102861.95;1716663;82;21842;-89
2022/02/12 10:28:46;;;;;;;13.13;4.45;;;;;;;2.73;75.18;102859.36;1716664;83;20983;-89
2022/02/12 10:31:13;;;;;;;10.75;3.75;;;;;;;2.75;75.07;102854.30;1716667;83;21144;-89
2022/02/12 10:33:46;;;;;;;12.03;5.97;;;;;;;2.75;74.89;102859.90;1716691;82;20995;-88
2022/02/12 10:36:18;;;;;;;11.28;4.12;;;;;;;2.74;74.87;102848.59;1715841;83;20992;-88
2022/02/12 10:38:49;;;;;;;14.63;5.65;;;;;;;2.75;74.77;102853.39;1716539;83;22761;-88
2022/02/12 10:41:17;;;;;;;21.68;9.68;;;;;;;2.77;74.80;102851.45;1715675;83;21481;-89
2022/02/12 10:43:46;;;;;;;12.45;5.78;;;;;;;2.82;74.87;102850.19;1716505;82;20976;-89
2022/02/12 10:46:13;;;;;;;10.43;4.87;;;;;;;2.87;74.91;102850.58;1717468;83;21200;-87
2022/02/12 10:48:40;;;;;;;10.32;5.22;;;;;;;2.94;74.98;102838.66;1719692;82;21019;-88
2022/02/12 10:51:13;;;;;;;14.53;5.42;;;;;;;3.02;75.02;102841.94;1719542;81;21767;-88
2022/02/12 10:54:07;;;;;;;11.85;5.75;;;;;;;3.03;74.83;102832.07;1719544;83;21025;-88
2022/02/12 10:56:49;;;;;;;15.78;7.75;;;;;;;3.02;74.53;102827.27;1719490;83;20991;-89
2022/02/12 10:59:22;;;;;;;12.68;5.20;;;;;;;2.99;74.31;102823.47;1719594;82;21000;-89
2022/02/12 11:01:50;;;;;;;13.88;5.47;;;;;;;2.97;74.13;102830.23;1719952;81;20980;-88
2022/02/12 11:04:17;;;;;;;15.23;6.05;;;;;;;2.92;73.84;102819.40;1719782;82;22672;-89
2022/02/12 11:06:47;;;;;;;15.20;7.05;;;;;;;2.89;73.73;102821.34;1738814;81;21438;-87
2022/02/12 11:09:15;;;;;;;14.45;5.75;;;;;;;2.90;73.86;102828.76;1738188;82;20992;-88
2022/02/12 11:11:47;;;;;;;15.95;6.30;;;;;;;2.93;73.72;102827.74;1740041;82;21090;-88
2022/02/12 11:14:19;;;;;;;18.02;8.08;;;;;;;2.92;73.46;102827.20;1744737;81;21003;-87
2022/02/12 11:16:45;;;;;;;8.70;5.10;;;;;;;2.93;73.37;102831.64;1739873;82;21740;-87
2022/02/12 11:19:13;;;;;;;11.88;4.95;;;;;;;2.96;73.37;102831.89;1739798;81;21007;-88
2022/02/12 11:21:39;;;;;;;9.53;4.95;;;;;;;2.99;73.29;102833.87;1739995;82;21002;-88
2022/02/12 11:24:08;;;;;;;12.20;4.97;;;;;;;3.01;73.19;102838.43;1739919;81;21598;-88
2022/02/12 11:26:42;;;;;;;12.80;3.42;;;;;;;3.04;73.15;102836.48;1739960;81;21006;-87
2022/02/12 11:29:36;;;;;;;23.18;11.65;;;;;;;3.07;73.14;102827.66;1739346;82;21193;-85
2022/02/12 11:32:15;;;;;;;14.18;5.05;;;;;;;3.10;73.03;102827.55;1739602;82;20976;-90
2022/02/12 11:34:58;;;;;;;10.55;3.72;;;;;;;3.13;72.69;102824.69;1718295;82;21008;-90